createdAt,value
2024-03-02T00:03:57.172Z,33.20
2024-03-02T00:08:49.101Z,31.33
2024-03-02T00:13:40.957Z,34.90
2024-03-02T00:18:36.085Z,31.42
2024-03-02T00:23:33.259Z,38.25
2024-03-02T00:28:30.467Z,48.08
2024-03-02T00:33:23.231Z,41.38
2024-03-02T00:38:16.923Z,32.42
2024-03-02T00:43:34.054Z,40.90
2024-03-02T00:48:25.895Z,38.80
2024-03-02T00:53:18.814Z,48.03
2024-03-02T00:58:10.653Z,44.22
2024-03-02T01:03:02.451Z,43.90
2024-03-02T01:07:54.294Z,40.42
2024-03-02T01:12:46.470Z,39.13
2024-03-02T01:17:38.283Z,37.10
2024-03-02T01:22:30.206Z,37.65
2024-03-02T01:27:22.319Z,40.95
2024-03-02T01:32:14.167Z,38.95
2024-03-02T01:37:06.002Z,39.42
2024-03-02T01:41:58.103Z,42.90
2024-03-02T01:46:49.931Z,39.50
2024-03-02T01:51:42.310Z,38.53
2024-03-02T01:56:34.091Z,38.97
2024-03-02T02:01:25.997Z,42.05
2024-03-02T02:06:18.033Z,53.50
2024-03-02T02:11:09.969Z,41.47
2024-03-02T02:16:09.123Z,58.17
2024-03-02T02:21:01.007Z,41.85
2024-03-02T02:25:52.793Z,44.33
2024-03-02T02:30:44.879Z,39.67
2024-03-02T02:35:36.717Z,41.78
2024-03-02T02:40:30.763Z,41.90
2024-03-02T02:45:22.780Z,43.33
2024-03-02T02:50:14.849Z,41.28
2024-03-02T02:55:11.568Z,39.60
2024-03-02T03:00:11.647Z,42.80
2024-03-02T03:05:03.623Z,39.70
2024-03-02T03:09:55.466Z,38.83
2024-03-02T03:14:47.361Z,38.50
2024-03-02T03:19:40.018Z,38.42
2024-03-02T03:24:31.845Z,40.33
2024-03-02T03:29:23.587Z,35.33
2024-03-02T03:34:17.173Z,37.22
2024-03-02T03:39:09.031Z,37.72
2024-03-02T03:44:00.791Z,36.22
2024-03-02T03:48:52.676Z,38.17
2024-03-02T03:53:44.478Z,33.38
2024-03-02T03:58:36.272Z,33.85
2024-03-02T04:03:28.179Z,33.17
2024-03-02T04:08:20.041Z,29.13
2024-03-02T04:13:11.901Z,31.50
2024-03-02T04:18:03.826Z,34.83
2024-03-02T04:22:55.666Z,34.35
2024-03-02T04:27:47.483Z,34.70
2024-03-02T04:32:40.083Z,36.90
2024-03-02T04:37:34.578Z,31.95
2024-03-02T04:42:26.625Z,36.05
2024-03-02T04:47:18.515Z,31.65
2024-03-02T04:52:10.852Z,30.73
2024-03-02T04:57:02.642Z,30.17
2024-03-02T05:01:54.500Z,29.08
2024-03-02T05:06:52.290Z,25.73
2024-03-02T05:12:00.577Z,27.87
2024-03-02T05:16:53.188Z,29.50
2024-03-02T05:21:45.092Z,27.42
2024-03-02T05:26:36.953Z,33.05
2024-03-02T05:31:28.780Z,30.45
2024-03-02T05:36:22.069Z,28.67
2024-03-02T05:41:13.864Z,31.40
2024-03-02T05:46:05.797Z,32.92
2024-03-02T05:50:57.966Z,27.77
2024-03-02T05:55:54.748Z,31.70
2024-03-02T06:00:46.629Z,26.65
2024-03-02T06:05:38.629Z,29.67
2024-03-02T06:10:30.451Z,30.23
2024-03-02T06:15:22.244Z,30.75
2024-03-02T06:20:14.209Z,24.08
2024-03-02T06:25:06.430Z,25.20
2024-03-02T06:29:58.246Z,26.45
2024-03-02T06:34:50.051Z,23.60
2024-03-02T06:39:41.876Z,25.55
2024-03-02T06:44:33.672Z,27.48
2024-03-02T06:49:25.461Z,21.80
2024-03-02T06:54:17.377Z,24.02
2024-03-02T06:59:09.214Z,27.50
2024-03-02T07:04:01.056Z,23.52
2024-03-02T07:08:52.894Z,26.42
2024-03-02T07:13:44.673Z,23.35
2024-03-02T07:18:42.271Z,30.30
2024-03-02T07:23:34.139Z,23.13
2024-03-02T07:28:26.067Z,23.38
2024-03-02T07:33:18.152Z,28.90
2024-03-02T07:38:10.054Z,25.02
2024-03-02T07:43:01.948Z,27.08
2024-03-02T07:47:53.810Z,24.98
2024-03-02T07:52:45.685Z,24.27
2024-03-02T07:57:37.547Z,25.80
2024-03-02T08:02:29.447Z,31.85
2024-03-02T08:07:21.316Z,22.95
2024-03-02T08:12:13.112Z,28.30
2024-03-02T08:17:10.866Z,30.10
2024-03-02T08:22:02.969Z,23.48
2024-03-02T08:26:54.877Z,29.45
2024-03-02T08:31:46.738Z,22.95
2024-03-02T08:36:39.471Z,24.27
2024-03-02T08:41:31.417Z,27.23
2024-03-02T08:46:23.308Z,26.45
2024-03-02T08:51:15.203Z,25.77
2024-03-02T08:56:07.614Z,28.48
2024-03-02T09:00:59.591Z,23.13
2024-03-02T09:05:51.479Z,29.95
2024-03-02T09:10:43.296Z,25.60
2024-03-02T09:15:38.965Z,24.20
2024-03-02T09:20:30.903Z,24.92
2024-03-02T09:25:22.695Z,25.63
2024-03-02T09:30:15.218Z,24.67
2024-03-02T09:35:07.387Z,30.50
2024-03-02T09:39:59.330Z,27.38
2024-03-02T09:44:51.284Z,28.60
2024-03-02T09:49:43.077Z,30.75
2024-03-02T09:54:34.893Z,26.45
2024-03-02T09:59:26.825Z,34.78
2024-03-02T10:04:18.830Z,37.03
2024-03-02T10:09:10.675Z,38.22
2024-03-02T10:14:10.516Z,35.10
2024-03-02T10:19:22.070Z,34.58
2024-03-02T10:24:14.039Z,39.00
2024-03-02T10:29:05.915Z,39.83
2024-03-02T10:33:59.270Z,40.00
2024-03-02T10:38:51.372Z,51.33
2024-03-02T10:43:43.246Z,42.78
2024-03-02T10:48:36.989Z,47.00
2024-03-02T10:53:28.824Z,48.28
2024-03-02T10:58:21.366Z,47.25
2024-03-02T11:03:13.869Z,44.47
2024-03-02T11:08:13.055Z,39.30
2024-03-02T11:13:10.893Z,36.17
2024-03-02T11:18:06.473Z,40.38
2024-03-02T11:22:58.275Z,30.95
2024-03-02T11:27:51.057Z,26.15
2024-03-02T11:32:42.900Z,26.83
2024-03-02T11:37:36.422Z,22.52
2024-03-02T11:42:28.218Z,24.45
2024-03-02T11:47:20.177Z,21.77
2024-03-02T11:52:13.893Z,21.50
2024-03-02T11:57:06.246Z,27.05
2024-03-02T12:01:59.673Z,23.48
2024-03-02T12:07:02.274Z,21.17
2024-03-02T12:12:11.096Z,21.85
2024-03-02T12:21:55.705Z,20.50
2024-03-02T12:26:49.364Z,19.10
2024-03-02T12:31:41.169Z,22.42
2024-03-02T12:36:39.549Z,21.90
2024-03-02T12:41:32.854Z,22.95
2024-03-02T12:46:24.832Z,23.15
2024-03-02T12:51:16.822Z,27.50
2024-03-02T12:56:09.844Z,26.63
2024-03-02T13:01:12.022Z,29.13
2024-03-02T13:06:04.120Z,25.98
2024-03-02T13:10:56.079Z,25.20
2024-03-02T13:15:48.586Z,27.98
2024-03-02T13:20:41.155Z,23.95
2024-03-02T13:25:33.760Z,23.60
2024-03-02T13:30:25.677Z,21.60
2024-03-02T13:35:17.452Z,25.50
2024-03-02T13:40:14.537Z,21.90
2024-03-02T13:45:07.764Z,21.35
2024-03-02T13:49:59.589Z,22.15
2024-03-02T13:54:53.610Z,20.30
2024-03-02T13:59:45.822Z,18.40
2024-03-02T14:04:38.724Z,19.92
2024-03-02T14:09:31.104Z,20.15
2024-03-02T14:14:23.133Z,16.98
2024-03-02T14:19:15.165Z,16.20
2024-03-02T14:24:10.502Z,16.98
2024-03-02T14:29:05.257Z,17.42
2024-03-02T14:33:57.127Z,15.45
2024-03-02T14:38:49.386Z,15.38
2024-03-02T14:43:41.797Z,18.83
2024-03-02T14:48:33.662Z,20.98
2024-03-02T14:53:25.455Z,16.08
2024-03-02T14:58:17.372Z,18.10
2024-03-02T15:03:09.898Z,16.23
2024-03-02T15:08:03.794Z,16.40
2024-03-02T15:12:55.644Z,18.70
2024-03-02T15:17:47.489Z,18.05
2024-03-02T15:22:39.395Z,19.02
2024-03-02T15:27:32.135Z,16.85
2024-03-02T15:32:24.046Z,19.15
2024-03-02T15:37:16.235Z,16.63
2024-03-02T15:42:07.939Z,21.65
2024-03-02T15:47:00.478Z,20.98
2024-03-02T15:51:52.471Z,17.85
2024-03-02T15:56:44.473Z,19.42
2024-03-02T16:01:36.609Z,15.85
2024-03-02T16:06:28.545Z,20.80
2024-03-02T16:11:20.405Z,15.80
2024-03-02T16:16:13.285Z,15.10
2024-03-02T16:21:05.566Z,16.20
2024-03-02T16:25:57.370Z,13.98
2024-03-02T16:30:49.930Z,17.08
2024-03-02T16:35:41.761Z,15.38
2024-03-02T16:40:33.591Z,13.38
2024-03-02T16:45:25.561Z,15.40
2024-03-02T16:50:17.960Z,15.98
2024-03-02T16:55:10.206Z,14.43
2024-03-02T17:00:02.086Z,27.58
2024-03-02T17:04:54.667Z,22.77
2024-03-02T17:09:46.734Z,19.25
2024-03-02T17:14:38.571Z,21.20
2024-03-02T17:19:30.378Z,20.05
2024-03-02T17:24:22.239Z,18.27
2024-03-02T17:29:14.099Z,19.38
2024-03-02T17:34:05.956Z,21.90
2024-03-02T17:38:57.850Z,18.98
2024-03-02T17:43:49.680Z,20.63
2024-03-02T17:48:44.380Z,18.65
2024-03-02T17:53:36.197Z,22.52
2024-03-02T17:58:27.921Z,19.38
2024-03-02T18:03:19.781Z,21.10
2024-03-02T18:08:11.613Z,20.23
2024-03-02T18:13:03.587Z,22.92
2024-03-02T18:17:55.442Z,20.85
2024-03-02T18:22:47.202Z,23.67
2024-03-02T18:27:39.246Z,18.77
2024-03-02T18:32:31.151Z,18.50
2024-03-02T18:37:24.177Z,22.60
2024-03-02T18:42:16.985Z,21.65
2024-03-02T18:47:08.859Z,21.83
2024-03-02T18:52:00.758Z,23.80
2024-03-02T18:56:52.734Z,20.83
2024-03-02T19:01:45.196Z,18.17
2024-03-02T19:06:37.200Z,18.08
2024-03-02T19:11:29.209Z,24.67
2024-03-02T19:16:21.057Z,20.75
2024-03-02T19:21:12.898Z,16.90
2024-03-02T19:26:05.305Z,18.00
2024-03-02T19:30:57.153Z,20.85
2024-03-02T19:35:48.984Z,24.73
2024-03-02T19:40:41.255Z,23.63
2024-03-02T19:45:33.185Z,21.42
2024-03-02T19:50:25.106Z,22.83
2024-03-02T19:55:18.390Z,18.80
2024-03-02T20:00:11.178Z,22.88
2024-03-02T20:05:03.013Z,21.25
2024-03-02T20:09:55.563Z,21.17
2024-03-02T20:14:47.396Z,22.35
2024-03-02T20:19:42.612Z,20.33
2024-03-02T20:24:34.556Z,26.83
2024-03-02T20:29:26.493Z,23.35
2024-03-02T20:34:19.371Z,21.70
2024-03-02T20:39:11.421Z,22.67
2024-03-02T20:44:07.253Z,23.73
2024-03-02T20:48:59.333Z,22.42
2024-03-02T20:53:51.180Z,24.23
2024-03-02T20:58:43.018Z,24.05
2024-03-02T21:03:38.790Z,25.52
2024-03-02T21:08:30.681Z,21.65
2024-03-02T21:13:22.539Z,24.45
2024-03-02T21:18:14.356Z,25.23
2024-03-02T21:23:07.647Z,28.83
2024-03-02T21:27:59.541Z,28.70
2024-03-02T21:32:52.992Z,28.58
2024-03-02T21:37:44.820Z,26.42
2024-03-02T21:42:36.661Z,26.13
2024-03-02T21:47:28.559Z,28.10
2024-03-02T21:52:20.465Z,25.73
2024-03-02T21:57:20.549Z,27.40
2024-03-02T22:02:12.378Z,29.77
2024-03-02T22:07:04.518Z,33.25
2024-03-02T22:11:56.676Z,29.30
2024-03-02T22:16:48.502Z,32.80
2024-03-02T22:21:40.291Z,36.70
2024-03-02T22:26:32.148Z,33.72
2024-03-02T22:31:23.943Z,40.28
2024-03-02T22:36:15.674Z,36.45
2024-03-02T22:41:07.482Z,39.25
2024-03-02T22:45:59.740Z,35.58
2024-03-02T22:50:51.528Z,39.53
2024-03-02T22:55:43.490Z,34.60
2024-03-02T23:00:37.218Z,39.85
2024-03-02T23:05:30.554Z,41.97
2024-03-02T23:10:22.437Z,44.60
2024-03-02T23:15:14.225Z,35.42
2024-03-02T23:20:07.017Z,39.20
2024-03-02T23:24:58.915Z,37.00
2024-03-02T23:29:50.761Z,35.25
2024-03-02T23:34:42.593Z,36.78
2024-03-02T23:39:55.276Z,36.05
2024-03-02T23:44:47.098Z,39.85
2024-03-02T23:49:38.926Z,45.90
2024-03-02T23:54:30.795Z,41.72
2024-03-02T23:59:22.618Z,40.28
